sensor_id;sensor_type;location;lat;lon;timestamp;temperature;humidity
8105;DHT22;4095;48.942;9.104;2022-07-23T00:01:00;27.00;83.70
8105;DHT22;4095;48.942;9.104;2022-07-23T00:03:26;27.00;83.80
8105;DHT22;4095;48.942;9.104;2022-07-23T00:05:52;27.00;84.20
8105;DHT22;4095;48.942;9.104;2022-07-23T00:08:17;27.00;83.80
8105;DHT22;4095;48.942;9.104;2022-07-23T00:10:43;27.00;83.70
8105;DHT22;4095;48.942;9.104;2022-07-23T00:13:08;27.00;83.70
8105;DHT22;4095;48.942;9.104;2022-07-23T00:15:34;26.90;84.10
8105;DHT22;4095;48.942;9.104;2022-07-23T00:18:00;26.90;83.70
8105;DHT22;4095;48.942;9.104;2022-07-23T00:20:25;26.90;83.90
8105;DHT22;4095;48.942;9.104;2022-07-23T00:22:54;26.90;83.60
8105;DHT22;4095;48.942;9.104;2022-07-23T00:25:22;26.90;83.40
8105;DHT22;4095;48.942;9.104;2022-07-23T00:27:48;26.80;83.40
8105;DHT22;4095;48.942;9.104;2022-07-23T00:30:14;26.80;83.60
8105;DHT22;4095;48.942;9.104;2022-07-23T00:32:52;26.80;83.90
8105;DHT22;4095;48.942;9.104;2022-07-23T00:35:21;26.80;84.60
8105;DHT22;4095;48.942;9.104;2022-07-23T00:37:47;26.80;85.20
8105;DHT22;4095;48.942;9.104;2022-07-23T00:40:13;26.80;85.00
8105;DHT22;4095;48.942;9.104;2022-07-23T00:42:39;26.80;84.60
8105;DHT22;4095;48.942;9.104;2022-07-23T00:45:06;26.80;85.80
8105;DHT22;4095;48.942;9.104;2022-07-23T00:47:32;26.70;86.30
8105;DHT22;4095;48.942;9.104;2022-07-23T00:49:57;26.70;85.80
8105;DHT22;4095;48.942;9.104;2022-07-23T00:52:23;26.60;85.40
8105;DHT22;4095;48.942;9.104;2022-07-23T00:54:49;26.60;86.20
8105;DHT22;4095;48.942;9.104;2022-07-23T00:57:15;26.60;86.60
8105;DHT22;4095;48.942;9.104;2022-07-23T00:59:41;26.60;86.90
8105;DHT22;4095;48.942;9.104;2022-07-23T01:02:07;26.50;84.90
8105;DHT22;4095;48.942;9.104;2022-07-23T01:04:33;26.40;85.00
8105;DHT22;4095;48.942;9.104;2022-07-23T01:06:59;26.40;86.50
8105;DHT22;4095;48.942;9.104;2022-07-23T01:09:25;26.40;86.40
8105;DHT22;4095;48.942;9.104;2022-07-23T01:11:51;26.40;84.80
8105;DHT22;4095;48.942;9.104;2022-07-23T01:14:18;26.40;86.60
8105;DHT22;4095;48.942;9.104;2022-07-23T01:16:46;26.30;87.00
8105;DHT22;4095;48.942;9.104;2022-07-23T01:19:12;26.30;87.20
8105;DHT22;4095;48.942;9.104;2022-07-23T01:21:40;26.20;87.10
8105;DHT22;4095;48.942;9.104;2022-07-23T01:24:06;26.20;86.50
8105;DHT22;4095;48.942;9.104;2022-07-23T01:26:32;26.20;85.90
8105;DHT22;4095;48.942;9.104;2022-07-23T01:28:58;26.20;85.50
8105;DHT22;4095;48.942;9.104;2022-07-23T01:31:23;26.10;86.40
8105;DHT22;4095;48.942;9.104;2022-07-23T01:33:49;26.10;85.70
8105;DHT22;4095;48.942;9.104;2022-07-23T01:36:15;26.10;85.40
8105;DHT22;4095;48.942;9.104;2022-07-23T01:38:40;26.10;86.30
8105;DHT22;4095;48.942;9.104;2022-07-23T01:41:06;26.00;86.30
8105;DHT22;4095;48.942;9.104;2022-07-23T01:43:31;26.00;86.30
8105;DHT22;4095;48.942;9.104;2022-07-23T01:45:57;26.00;86.20
8105;DHT22;4095;48.942;9.104;2022-07-23T01:48:23;26.00;86.30
8105;DHT22;4095;48.942;9.104;2022-07-23T01:50:48;25.90;86.90
8105;DHT22;4095;48.942;9.104;2022-07-23T01:53:14;26.00;87.10
8105;DHT22;4095;48.942;9.104;2022-07-23T01:55:41;26.00;88.50
8105;DHT22;4095;48.942;9.104;2022-07-23T01:58:06;25.90;88.00
8105;DHT22;4095;48.942;9.104;2022-07-23T02:00:32;25.80;88.30
8105;DHT22;4095;48.942;9.104;2022-07-23T02:02:58;25.80;89.00
8105;DHT22;4095;48.942;9.104;2022-07-23T02:05:25;25.70;89.30
8105;DHT22;4095;48.942;9.104;2022-07-23T02:07:50;25.70;89.40
8105;DHT22;4095;48.942;9.104;2022-07-23T02:10:16;25.60;89.60
8105;DHT22;4095;48.942;9.104;2022-07-23T02:12:42;25.60;89.30
8105;DHT22;4095;48.942;9.104;2022-07-23T02:15:07;25.50;89.40
8105;DHT22;4095;48.942;9.104;2022-07-23T02:17:33;25.50;89.50
8105;DHT22;4095;48.942;9.104;2022-07-23T02:19:59;25.40;89.80
8105;DHT22;4095;48.942;9.104;2022-07-23T02:22:24;25.30;89.70
8105;DHT22;4095;48.942;9.104;2022-07-23T02:24:50;25.40;89.70
8105;DHT22;4095;48.942;9.104;2022-07-23T02:27:16;25.40;89.70
8105;DHT22;4095;48.942;9.104;2022-07-23T02:29:41;25.40;88.90
8105;DHT22;4095;48.942;9.104;2022-07-23T02:32:07;25.40;88.60
8105;DHT22;4095;48.942;9.104;2022-07-23T02:34:33;25.40;88.20
8105;DHT22;4095;48.942;9.104;2022-07-23T02:36:58;25.40;87.80
8105;DHT22;4095;48.942;9.104;2022-07-23T02:39:24;25.30;88.10
8105;DHT22;4095;48.942;9.104;2022-07-23T02:41:49;25.40;88.20
8105;DHT22;4095;48.942;9.104;2022-07-23T02:44:15;25.30;88.60
8105;DHT22;4095;48.942;9.104;2022-07-23T02:46:40;25.30;89.10
8105;DHT22;4095;48.942;9.104;2022-07-23T02:49:06;25.30;89.50
8105;DHT22;4095;48.942;9.104;2022-07-23T02:51:31;25.30;89.70
8105;DHT22;4095;48.942;9.104;2022-07-23T02:53:57;25.20;89.80
8105;DHT22;4095;48.942;9.104;2022-07-23T02:56:23;25.30;90.00
8105;DHT22;4095;48.942;9.104;2022-07-23T02:58:48;25.30;89.80
8105;DHT22;4095;48.942;9.104;2022-07-23T03:01:14;25.30;89.60
8105;DHT22;4095;48.942;9.104;2022-07-23T03:03:40;25.30;89.50
8105;DHT22;4095;48.942;9.104;2022-07-23T03:06:05;25.30;89.50
8105;DHT22;4095;48.942;9.104;2022-07-23T03:08:31;25.20;89.00
8105;DHT22;4095;48.942;9.104;2022-07-23T03:10:57;25.20;88.40
8105;DHT22;4095;48.942;9.104;2022-07-23T03:13:22;25.20;88.80
8105;DHT22;4095;48.942;9.104;2022-07-23T03:15:48;25.20;88.40
8105;DHT22;4095;48.942;9.104;2022-07-23T03:18:14;25.20;88.60
8105;DHT22;4095;48.942;9.104;2022-07-23T03:20:39;25.20;88.50
8105;DHT22;4095;48.942;9.104;2022-07-23T03:23:05;25.20;88.60
8105;DHT22;4095;48.942;9.104;2022-07-23T03:25:31;25.10;89.20
8105;DHT22;4095;48.942;9.104;2022-07-23T03:27:56;25.10;89.80
8105;DHT22;4095;48.942;9.104;2022-07-23T03:30:22;25.10;89.60
8105;DHT22;4095;48.942;9.104;2022-07-23T03:32:47;25.00;89.80
8105;DHT22;4095;48.942;9.104;2022-07-23T03:35:13;25.00;90.10
8105;DHT22;4095;48.942;9.104;2022-07-23T03:37:39;25.00;90.20
8105;DHT22;4095;48.942;9.104;2022-07-23T03:40:05;25.00;90.40
8105;DHT22;4095;48.942;9.104;2022-07-23T03:42:31;24.90;90.40
8105;DHT22;4095;48.942;9.104;2022-07-23T03:44:57;24.80;90.50
8105;DHT22;4095;48.942;9.104;2022-07-23T03:47:22;24.80;90.60
8105;DHT22;4095;48.942;9.104;2022-07-23T03:49:49;24.70;90.70
8105;DHT22;4095;48.942;9.104;2022-07-23T03:52:15;24.70;90.50
8105;DHT22;4095;48.942;9.104;2022-07-23T03:54:41;24.70;90.50
8105;DHT22;4095;48.942;9.104;2022-07-23T03:57:06;24.70;90.30
8105;DHT22;4095;48.942;9.104;2022-07-23T03:59:32;24.70;90.80
8105;DHT22;4095;48.942;9.104;2022-07-23T04:01:57;24.70;91.50
8105;DHT22;4095;48.942;9.104;2022-07-23T04:04:23;24.70;91.50
8105;DHT22;4095;48.942;9.104;2022-07-23T04:06:49;24.60;91.00
8105;DHT22;4095;48.942;9.104;2022-07-23T04:09:14;24.60;91.00
8105;DHT22;4095;48.942;9.104;2022-07-23T04:11:40;24.60;90.90
8105;DHT22;4095;48.942;9.104;2022-07-23T04:14:06;24.60;91.00
8105;DHT22;4095;48.942;9.104;2022-07-23T04:16:31;24.60;90.80
8105;DHT22;4095;48.942;9.104;2022-07-23T04:18:57;24.60;90.90
8105;DHT22;4095;48.942;9.104;2022-07-23T04:21:23;24.60;91.30
8105;DHT22;4095;48.942;9.104;2022-07-23T04:23:49;24.60;91.60
8105;DHT22;4095;48.942;9.104;2022-07-23T04:26:15;24.60;91.50
8105;DHT22;4095;48.942;9.104;2022-07-23T04:28:41;24.60;91.60
8105;DHT22;4095;48.942;9.104;2022-07-23T04:31:07;24.60;91.40
8105;DHT22;4095;48.942;9.104;2022-07-23T04:33:32;24.60;91.60
8105;DHT22;4095;48.942;9.104;2022-07-23T04:35:58;24.60;91.80
8105;DHT22;4095;48.942;9.104;2022-07-23T04:38:24;24.60;91.70
8105;DHT22;4095;48.942;9.104;2022-07-23T04:40:49;24.60;92.10
8105;DHT22;4095;48.942;9.104;2022-07-23T04:43:15;24.60;92.10
8105;DHT22;4095;48.942;9.104;2022-07-23T04:45:41;24.60;91.90
8105;DHT22;4095;48.942;9.104;2022-07-23T04:48:06;24.60;91.90
8105;DHT22;4095;48.942;9.104;2022-07-23T04:50:32;24.60;92.00
8105;DHT22;4095;48.942;9.104;2022-07-23T04:52:57;24.50;92.10
8105;DHT22;4095;48.942;9.104;2022-07-23T04:55:23;24.60;92.10
8105;DHT22;4095;48.942;9.104;2022-07-23T04:57:49;24.60;92.10
8105;DHT22;4095;48.942;9.104;2022-07-23T05:00:15;24.60;92.50
8105;DHT22;4095;48.942;9.104;2022-07-23T05:02:40;24.60;92.70
8105;DHT22;4095;48.942;9.104;2022-07-23T05:05:06;24.60;92.50
8105;DHT22;4095;48.942;9.104;2022-07-23T05:07:32;24.70;92.50
8105;DHT22;4095;48.942;9.104;2022-07-23T05:09:58;24.70;92.80
8105;DHT22;4095;48.942;9.104;2022-07-23T05:12:23;24.80;92.90
8105;DHT22;4095;48.942;9.104;2022-07-23T05:14:49;24.80;93.10
8105;DHT22;4095;48.942;9.104;2022-07-23T05:17:15;24.80;92.40
8105;DHT22;4095;48.942;9.104;2022-07-23T05:19:40;24.80;92.00
8105;DHT22;4095;48.942;9.104;2022-07-23T05:22:06;24.80;91.90
8105;DHT22;4095;48.942;9.104;2022-07-23T05:24:31;24.80;91.70
8105;DHT22;4095;48.942;9.104;2022-07-23T05:26:57;24.90;92.20
8105;DHT22;4095;48.942;9.104;2022-07-23T05:29:23;24.90;92.30
8105;DHT22;4095;48.942;9.104;2022-07-23T05:31:48;24.90;91.90
8105;DHT22;4095;48.942;9.104;2022-07-23T05:34:14;24.90;94.70
8105;DHT22;4095;48.942;9.104;2022-07-23T05:36:39;24.90;95.70
8105;DHT22;4095;48.942;9.104;2022-07-23T05:39:05;24.70;95.30
8105;DHT22;4095;48.942;9.104;2022-07-23T05:41:30;24.70;96.60
8105;DHT22;4095;48.942;9.104;2022-07-23T05:43:56;24.50;96.40
8105;DHT22;4095;48.942;9.104;2022-07-23T05:46:22;24.50;96.90
8105;DHT22;4095;48.942;9.104;2022-07-23T05:48:47;24.40;96.80
8105;DHT22;4095;48.942;9.104;2022-07-23T05:51:24;24.30;97.30
8105;DHT22;4095;48.942;9.104;2022-07-23T05:53:51;24.30;97.70
8105;DHT22;4095;48.942;9.104;2022-07-23T05:56:17;24.20;98.00
8105;DHT22;4095;48.942;9.104;2022-07-23T05:58:43;24.10;97.10
8105;DHT22;4095;48.942;9.104;2022-07-23T06:01:10;24.10;97.10
8105;DHT22;4095;48.942;9.104;2022-07-23T06:03:37;24.10;97.70
8105;DHT22;4095;48.942;9.104;2022-07-23T06:06:04;24.00;97.20
8105;DHT22;4095;48.942;9.104;2022-07-23T06:08:29;24.00;97.00
8105;DHT22;4095;48.942;9.104;2022-07-23T06:10:55;24.10;97.90
8105;DHT22;4095;48.942;9.104;2022-07-23T06:13:21;24.00;98.40
8105;DHT22;4095;48.942;9.104;2022-07-23T06:15:46;24.00;98.20
8105;DHT22;4095;48.942;9.104;2022-07-23T06:18:12;23.90;98.40
8105;DHT22;4095;48.942;9.104;2022-07-23T06:20:38;24.00;98.60
8105;DHT22;4095;48.942;9.104;2022-07-23T06:23:04;24.00;98.70
8105;DHT22;4095;48.942;9.104;2022-07-23T06:25:30;24.10;99.20
8105;DHT22;4095;48.942;9.104;2022-07-23T06:27:56;24.00;96.60
8105;DHT22;4095;48.942;9.104;2022-07-23T06:30:21;24.10;96.40
8105;DHT22;4095;48.942;9.104;2022-07-23T06:32:48;24.20;96.70
8105;DHT22;4095;48.942;9.104;2022-07-23T06:35:14;24.30;97.40
8105;DHT22;4095;48.942;9.104;2022-07-23T06:37:40;24.30;96.30
8105;DHT22;4095;48.942;9.104;2022-07-23T06:40:06;24.40;96.60
8105;DHT22;4095;48.942;9.104;2022-07-23T06:42:32;24.50;96.60
8105;DHT22;4095;48.942;9.104;2022-07-23T06:44:58;24.50;96.50
8105;DHT22;4095;48.942;9.104;2022-07-23T06:47:23;24.60;96.00
8105;DHT22;4095;48.942;9.104;2022-07-23T06:49:49;24.50;95.20
8105;DHT22;4095;48.942;9.104;2022-07-23T06:52:15;24.50;95.40
8105;DHT22;4095;48.942;9.104;2022-07-23T06:54:40;24.50;95.30
8105;DHT22;4095;48.942;9.104;2022-07-23T06:57:06;24.40;95.70
8105;DHT22;4095;48.942;9.104;2022-07-23T06:59:31;24.30;96.30
8105;DHT22;4095;48.942;9.104;2022-07-23T07:01:58;24.30;96.60
8105;DHT22;4095;48.942;9.104;2022-07-23T07:04:24;24.20;96.90
8105;DHT22;4095;48.942;9.104;2022-07-23T07:06:50;24.00;97.90
8105;DHT22;4095;48.942;9.104;2022-07-23T07:09:15;23.90;98.80
8105;DHT22;4095;48.942;9.104;2022-07-23T07:11:41;23.70;99.00
8105;DHT22;4095;48.942;9.104;2022-07-23T07:14:07;23.60;99.40
8105;DHT22;4095;48.942;9.104;2022-07-23T07:16:32;23.50;99.50
8105;DHT22;4095;48.942;9.104;2022-07-23T07:18:58;23.40;99.70
8105;DHT22;4095;48.942;9.104;2022-07-23T07:21:23;23.30;99.90
8105;DHT22;4095;48.942;9.104;2022-07-23T07:23:49;23.20;99.90
8105;DHT22;4095;48.942;9.104;2022-07-23T07:26:15;23.20;99.90
8105;DHT22;4095;48.942;9.104;2022-07-23T07:28:40;23.30;99.90
8105;DHT22;4095;48.942;9.104;2022-07-23T07:31:06;23.30;99.90
8105;DHT22;4095;48.942;9.104;2022-07-23T07:33:32;23.30;99.90
8105;DHT22;4095;48.942;9.104;2022-07-23T07:35:58;23.30;99.90
8105;DHT22;4095;48.942;9.104;2022-07-23T07:38:24;23.40;99.90
8105;DHT22;4095;48.942;9.104;2022-07-23T07:40:49;23.40;99.90
8105;DHT22;4095;48.942;9.104;2022-07-23T07:43:15;23.40;99.90
8105;DHT22;4095;48.942;9.104;2022-07-23T07:45:41;23.40;99.90
8105;DHT22;4095;48.942;9.104;2022-07-23T07:48:06;23.50;99.90
8105;DHT22;4095;48.942;9.104;2022-07-23T07:50:32;23.60;99.90
8105;DHT22;4095;48.942;9.104;2022-07-23T07:52:58;23.70;99.90
8105;DHT22;4095;48.942;9.104;2022-07-23T07:55:23;23.70;99.90
8105;DHT22;4095;48.942;9.104;2022-07-23T07:57:49;23.70;99.90
8105;DHT22;4095;48.942;9.104;2022-07-23T08:00:15;23.60;99.90
8105;DHT22;4095;48.942;9.104;2022-07-23T08:05:07;23.40;99.90
8105;DHT22;4095;48.942;9.104;2022-07-23T08:07:33;23.30;99.90
8105;DHT22;4095;48.942;9.104;2022-07-23T08:09:58;23.30;99.90
8105;DHT22;4095;48.942;9.104;2022-07-23T08:12:24;23.30;99.90
8105;DHT22;4095;48.942;9.104;2022-07-23T08:14:49;23.30;99.90
8105;DHT22;4095;48.942;9.104;2022-07-23T08:17:15;23.30;99.90
8105;DHT22;4095;48.942;9.104;2022-07-23T08:19:41;23.20;99.90
8105;DHT22;4095;48.942;9.104;2022-07-23T08:22:06;23.30;99.90
8105;DHT22;4095;48.942;9.104;2022-07-23T08:24:32;23.30;99.90
8105;DHT22;4095;48.942;9.104;2022-07-23T08:26:57;23.30;99.90
8105;DHT22;4095;48.942;9.104;2022-07-23T08:29:23;23.40;99.90
8105;DHT22;4095;48.942;9.104;2022-07-23T08:31:48;23.40;99.90
8105;DHT22;4095;48.942;9.104;2022-07-23T08:34:14;23.50;99.90
8105;DHT22;4095;48.942;9.104;2022-07-23T08:36:40;23.60;99.90
8105;DHT22;4095;48.942;9.104;2022-07-23T08:39:05;23.60;99.90
8105;DHT22;4095;48.942;9.104;2022-07-23T08:41:31;23.60;99.90
8105;DHT22;4095;48.942;9.104;2022-07-23T08:43:59;23.60;99.90
8105;DHT22;4095;48.942;9.104;2022-07-23T08:46:26;23.60;99.90
8105;DHT22;4095;48.942;9.104;2022-07-23T08:48:53;23.70;99.90
8105;DHT22;4095;48.942;9.104;2022-07-23T08:51:20;23.80;99.90
8105;DHT22;4095;48.942;9.104;2022-07-23T08:53:46;23.90;99.90
8105;DHT22;4095;48.942;9.104;2022-07-23T08:56:13;23.90;99.90
8105;DHT22;4095;48.942;9.104;2022-07-23T08:58:38;24.00;99.90
8105;DHT22;4095;48.942;9.104;2022-07-23T09:01:04;24.10;99.90
8105;DHT22;4095;48.942;9.104;2022-07-23T09:03:32;24.20;99.90
8105;DHT22;4095;48.942;9.104;2022-07-23T09:05:58;24.50;99.90
8105;DHT22;4095;48.942;9.104;2022-07-23T09:08:27;24.60;99.90
8105;DHT22;4095;48.942;9.104;2022-07-23T09:11:04;24.60;99.90
8105;DHT22;4095;48.942;9.104;2022-07-23T09:16:05;25.00;99.70
8105;DHT22;4095;48.942;9.104;2022-07-23T09:18:48;25.10;99.90
8105;DHT22;4095;48.942;9.104;2022-07-23T09:21:21;25.20;98.10
8105;DHT22;4095;48.942;9.104;2022-07-23T09:24:07;25.30;98.10
8105;DHT22;4095;48.942;9.104;2022-07-23T09:26:34;25.40;98.30
8105;DHT22;4095;48.942;9.104;2022-07-23T09:31:33;25.60;97.40
8105;DHT22;4095;48.942;9.104;2022-07-23T09:34:23;25.70;97.70
8105;DHT22;4095;48.942;9.104;2022-07-23T09:36:54;25.80;95.80
8105;DHT22;4095;48.942;9.104;2022-07-23T09:39:33;25.70;95.30
8105;DHT22;4095;48.942;9.104;2022-07-23T09:42:19;25.90;96.60
8105;DHT22;4095;48.942;9.104;2022-07-23T09:44:49;26.00;95.70
8105;DHT22;4095;48.942;9.104;2022-07-23T09:47:15;26.10;95.60
8105;DHT22;4095;48.942;9.104;2022-07-23T09:50:01;26.40;98.20
8105;DHT22;4095;48.942;9.104;2022-07-23T09:52:34;26.60;98.10
8105;DHT22;4095;48.942;9.104;2022-07-23T09:55:02;26.70;98.10
8105;DHT22;4095;48.942;9.104;2022-07-23T09:57:28;26.90;97.50
8105;DHT22;4095;48.942;9.104;2022-07-23T09:59:58;27.10;96.80
8105;DHT22;4095;48.942;9.104;2022-07-23T10:02:25;27.20;95.20
8105;DHT22;4095;48.942;9.104;2022-07-23T10:04:53;27.20;94.80
8105;DHT22;4095;48.942;9.104;2022-07-23T10:07:21;27.20;95.00
8105;DHT22;4095;48.942;9.104;2022-07-23T10:09:48;27.40;96.00
8105;DHT22;4095;48.942;9.104;2022-07-23T10:12:18;27.50;96.00
8105;DHT22;4095;48.942;9.104;2022-07-23T10:15:05;27.60;95.00
8105;DHT22;4095;48.942;9.104;2022-07-23T10:17:35;27.70;95.60
8105;DHT22;4095;48.942;9.104;2022-07-23T10:20:01;27.90;95.00
8105;DHT22;4095;48.942;9.104;2022-07-23T10:23:00;27.90;93.90
8105;DHT22;4095;48.942;9.104;2022-07-23T10:25:36;28.10;95.30
8105;DHT22;4095;48.942;9.104;2022-07-23T10:36:47;28.60;92.30
8105;DHT22;4095;48.942;9.104;2022-07-23T10:39:18;28.60;91.20
8105;DHT22;4095;48.942;9.104;2022-07-23T10:41:44;28.60;92.00
8105;DHT22;4095;48.942;9.104;2022-07-23T10:44:18;28.70;92.30
8105;DHT22;4095;48.942;9.104;2022-07-23T10:47:00;28.80;90.70
8105;DHT22;4095;48.942;9.104;2022-07-23T10:49:44;28.70;87.40
8105;DHT22;4095;48.942;9.104;2022-07-23T10:57:10;28.90;89.00
8105;DHT22;4095;48.942;9.104;2022-07-23T11:02:46;29.20;85.60
8105;DHT22;4095;48.942;9.104;2022-07-23T11:05:20;29.30;84.80
8105;DHT22;4095;48.942;9.104;2022-07-23T11:10:37;29.50;85.80
8105;DHT22;4095;48.942;9.104;2022-07-23T11:16:05;29.70;84.90
8105;DHT22;4095;48.942;9.104;2022-07-23T11:18:56;29.70;83.90
8105;DHT22;4095;48.942;9.104;2022-07-23T11:31:58;30.20;84.30
8105;DHT22;4095;48.942;9.104;2022-07-23T11:37:00;30.50;83.70
8105;DHT22;4095;48.942;9.104;2022-07-23T11:39:28;30.50;84.80
8105;DHT22;4095;48.942;9.104;2022-07-23T11:41:54;30.60;84.20
8105;DHT22;4095;48.942;9.104;2022-07-23T11:44:36;30.70;84.40
8105;DHT22;4095;48.942;9.104;2022-07-23T11:47:08;30.80;84.00
8105;DHT22;4095;48.942;9.104;2022-07-23T11:49:34;30.80;83.10
8105;DHT22;4095;48.942;9.104;2022-07-23T11:52:07;30.80;82.60
8105;DHT22;4095;48.942;9.104;2022-07-23T11:54:34;30.80;81.40
8105;DHT22;4095;48.942;9.104;2022-07-23T11:57:01;30.80;82.40
8105;DHT22;4095;48.942;9.104;2022-07-23T11:59:31;30.90;80.20
8105;DHT22;4095;48.942;9.104;2022-07-23T12:02:03;31.00;81.40
8105;DHT22;4095;48.942;9.104;2022-07-23T12:04:47;31.00;82.20
8105;DHT22;4095;48.942;9.104;2022-07-23T12:10:08;31.20;82.10
8105;DHT22;4095;48.942;9.104;2022-07-23T12:12:43;31.10;79.80
8105;DHT22;4095;48.942;9.104;2022-07-23T12:15:10;31.00;79.80
8105;DHT22;4095;48.942;9.104;2022-07-23T12:17:39;31.00;81.70
8105;DHT22;4095;48.942;9.104;2022-07-23T12:20:07;31.10;81.20
8105;DHT22;4095;48.942;9.104;2022-07-23T12:22:40;31.20;81.70
8105;DHT22;4095;48.942;9.104;2022-07-23T12:25:20;31.20;78.40
8105;DHT22;4095;48.942;9.104;2022-07-23T12:28:05;31.20;78.10
8105;DHT22;4095;48.942;9.104;2022-07-23T12:30:34;31.30;81.30
8105;DHT22;4095;48.942;9.104;2022-07-23T12:33:03;31.40;80.20
8105;DHT22;4095;48.942;9.104;2022-07-23T12:35:49;31.40;79.60
8105;DHT22;4095;48.942;9.104;2022-07-23T12:38:18;31.50;78.60
8105;DHT22;4095;48.942;9.104;2022-07-23T12:43:38;31.60;77.60
8105;DHT22;4095;48.942;9.104;2022-07-23T12:46:12;31.60;78.40
8105;DHT22;4095;48.942;9.104;2022-07-23T12:48:51;31.50;77.70
8105;DHT22;4095;48.942;9.104;2022-07-23T12:51:27;31.50;79.50
8105;DHT22;4095;48.942;9.104;2022-07-23T12:53:59;31.50;79.10
8105;DHT22;4095;48.942;9.104;2022-07-23T12:56:30;31.50;80.40
8105;DHT22;4095;48.942;9.104;2022-07-23T12:59:09;31.50;79.70
8105;DHT22;4095;48.942;9.104;2022-07-23T13:01:40;31.50;80.10
8105;DHT22;4095;48.942;9.104;2022-07-23T13:04:10;31.60;79.50
8105;DHT22;4095;48.942;9.104;2022-07-23T13:09:11;31.50;77.80
8105;DHT22;4095;48.942;9.104;2022-07-23T13:11:38;31.30;77.10
8105;DHT22;4095;48.942;9.104;2022-07-23T13:14:05;31.20;77.80
8105;DHT22;4095;48.942;9.104;2022-07-23T13:16:31;31.20;78.20
8105;DHT22;4095;48.942;9.104;2022-07-23T13:18:58;31.20;77.80
8105;DHT22;4095;48.942;9.104;2022-07-23T13:21:25;31.20;76.80
8105;DHT22;4095;48.942;9.104;2022-07-23T13:23:51;31.20;78.10
8105;DHT22;4095;48.942;9.104;2022-07-23T13:26:17;31.20;76.00
8105;DHT22;4095;48.942;9.104;2022-07-23T13:28:42;31.10;73.80
8105;DHT22;4095;48.942;9.104;2022-07-23T13:31:08;31.10;74.80
8105;DHT22;4095;48.942;9.104;2022-07-23T13:33:34;31.00;75.60
8105;DHT22;4095;48.942;9.104;2022-07-23T13:36:00;30.90;74.70
8105;DHT22;4095;48.942;9.104;2022-07-23T13:38:26;30.80;75.30
8105;DHT22;4095;48.942;9.104;2022-07-23T13:40:52;30.80;74.20
8105;DHT22;4095;48.942;9.104;2022-07-23T13:43:20;30.70;74.20
8105;DHT22;4095;48.942;9.104;2022-07-23T13:45:47;30.70;75.80
8105;DHT22;4095;48.942;9.104;2022-07-23T13:48:13;30.70;75.40
8105;DHT22;4095;48.942;9.104;2022-07-23T13:50:41;30.60;77.00
8105;DHT22;4095;48.942;9.104;2022-07-23T13:53:09;30.60;74.40
8105;DHT22;4095;48.942;9.104;2022-07-23T13:55:36;30.50;75.20
8105;DHT22;4095;48.942;9.104;2022-07-23T13:58:03;30.50;75.60
8105;DHT22;4095;48.942;9.104;2022-07-23T14:00:30;30.50;75.30
8105;DHT22;4095;48.942;9.104;2022-07-23T14:02:56;30.40;75.40
8105;DHT22;4095;48.942;9.104;2022-07-23T14:05:22;30.40;77.00
8105;DHT22;4095;48.942;9.104;2022-07-23T14:07:48;30.30;74.20
8105;DHT22;4095;48.942;9.104;2022-07-23T14:10:16;30.30;75.00
8105;DHT22;4095;48.942;9.104;2022-07-23T14:12:43;30.20;76.50
8105;DHT22;4095;48.942;9.104;2022-07-23T14:15:09;30.20;74.60
8105;DHT22;4095;48.942;9.104;2022-07-23T14:17:39;30.10;76.10
8105;DHT22;4095;48.942;9.104;2022-07-23T14:20:07;30.20;76.60
8105;DHT22;4095;48.942;9.104;2022-07-23T14:22:33;30.30;76.50
8105;DHT22;4095;48.942;9.104;2022-07-23T14:24:59;30.30;78.40
8105;DHT22;4095;48.942;9.104;2022-07-23T14:27:26;30.30;77.00
8105;DHT22;4095;48.942;9.104;2022-07-23T14:29:53;30.30;76.60
8105;DHT22;4095;48.942;9.104;2022-07-23T14:32:19;30.30;77.40
8105;DHT22;4095;48.942;9.104;2022-07-23T14:34:44;30.30;76.50
8105;DHT22;4095;48.942;9.104;2022-07-23T14:37:11;30.30;76.70
8105;DHT22;4095;48.942;9.104;2022-07-23T14:39:40;30.30;77.50
8105;DHT22;4095;48.942;9.104;2022-07-23T14:42:06;30.40;78.00
8105;DHT22;4095;48.942;9.104;2022-07-23T14:44:33;30.40;77.70
8105;DHT22;4095;48.942;9.104;2022-07-23T14:46:58;30.40;77.00
8105;DHT22;4095;48.942;9.104;2022-07-23T14:49:25;30.40;78.00
8105;DHT22;4095;48.942;9.104;2022-07-23T14:51:51;30.40;76.90
8105;DHT22;4095;48.942;9.104;2022-07-23T14:54:17;30.50;79.30
8105;DHT22;4095;48.942;9.104;2022-07-23T14:56:43;30.50;79.10
8105;DHT22;4095;48.942;9.104;2022-07-23T14:59:08;30.50;78.10
8105;DHT22;4095;48.942;9.104;2022-07-23T15:01:34;30.40;77.00
8105;DHT22;4095;48.942;9.104;2022-07-23T15:04:00;30.30;75.80
8105;DHT22;4095;48.942;9.104;2022-07-23T15:06:26;30.30;77.40
8105;DHT22;4095;48.942;9.104;2022-07-23T15:08:52;30.30;77.80
8105;DHT22;4095;48.942;9.104;2022-07-23T15:11:17;30.30;77.20
8105;DHT22;4095;48.942;9.104;2022-07-23T15:13:43;30.30;78.00
8105;DHT22;4095;48.942;9.104;2022-07-23T15:16:09;30.30;79.00
8105;DHT22;4095;48.942;9.104;2022-07-23T15:18:35;30.40;77.70
8105;DHT22;4095;48.942;9.104;2022-07-23T15:21:02;30.30;77.30
8105;DHT22;4095;48.942;9.104;2022-07-23T15:23:28;30.20;77.40
8105;DHT22;4095;48.942;9.104;2022-07-23T15:25:55;30.20;77.40
8105;DHT22;4095;48.942;9.104;2022-07-23T15:28:22;30.20;76.90
8105;DHT22;4095;48.942;9.104;2022-07-23T15:30:49;30.20;76.60
8105;DHT22;4095;48.942;9.104;2022-07-23T15:33:14;30.10;77.00
8105;DHT22;4095;48.942;9.104;2022-07-23T15:35:40;30.20;77.50
8105;DHT22;4095;48.942;9.104;2022-07-23T15:38:06;30.10;76.80
8105;DHT22;4095;48.942;9.104;2022-07-23T15:40:31;30.20;78.10
8105;DHT22;4095;48.942;9.104;2022-07-23T15:42:57;30.20;78.10
8105;DHT22;4095;48.942;9.104;2022-07-23T15:45:23;30.20;77.30
8105;DHT22;4095;48.942;9.104;2022-07-23T15:47:48;30.20;79.00
8105;DHT22;4095;48.942;9.104;2022-07-23T15:50:15;30.20;77.30
8105;DHT22;4095;48.942;9.104;2022-07-23T15:52:41;30.10;77.30
8105;DHT22;4095;48.942;9.104;2022-07-23T15:55:07;30.10;78.40
8105;DHT22;4095;48.942;9.104;2022-07-23T15:57:33;30.10;79.10
8105;DHT22;4095;48.942;9.104;2022-07-23T15:59:59;30.10;79.80
8105;DHT22;4095;48.942;9.104;2022-07-23T16:02:24;30.10;80.40
8105;DHT22;4095;48.942;9.104;2022-07-23T16:04:51;30.00;78.20
8105;DHT22;4095;48.942;9.104;2022-07-23T16:07:18;29.90;79.00
8105;DHT22;4095;48.942;9.104;2022-07-23T16:09:44;29.90;78.80
8105;DHT22;4095;48.942;9.104;2022-07-23T16:12:10;29.80;79.50
8105;DHT22;4095;48.942;9.104;2022-07-23T16:14:36;29.80;79.20
8105;DHT22;4095;48.942;9.104;2022-07-23T16:17:02;29.80;78.90
8105;DHT22;4095;48.942;9.104;2022-07-23T16:19:28;29.70;79.60
8105;DHT22;4095;48.942;9.104;2022-07-23T16:21:54;29.70;79.80
8105;DHT22;4095;48.942;9.104;2022-07-23T16:24:19;29.70;79.60
8105;DHT22;4095;48.942;9.104;2022-07-23T16:26:46;29.70;79.80
8105;DHT22;4095;48.942;9.104;2022-07-23T16:29:11;29.70;79.70
8105;DHT22;4095;48.942;9.104;2022-07-23T16:31:37;29.70;79.80
8105;DHT22;4095;48.942;9.104;2022-07-23T16:34:03;29.70;78.80
8105;DHT22;4095;48.942;9.104;2022-07-23T16:36:29;29.60;79.50
8105;DHT22;4095;48.942;9.104;2022-07-23T16:38:55;29.60;80.30
8105;DHT22;4095;48.942;9.104;2022-07-23T16:41:21;29.60;80.40
8105;DHT22;4095;48.942;9.104;2022-07-23T16:43:46;29.60;80.70
8105;DHT22;4095;48.942;9.104;2022-07-23T16:46:13;29.50;80.10
8105;DHT22;4095;48.942;9.104;2022-07-23T16:48:38;29.50;79.90
8105;DHT22;4095;48.942;9.104;2022-07-23T16:51:04;29.50;81.20
8105;DHT22;4095;48.942;9.104;2022-07-23T16:53:30;29.50;80.90